Western Neb. Rgnl/William B. Heilig Airport
KBFF : now visible

Airfield :











YOU CAN JOIN US ON...

 
LOGIN :

Register | Disclaimer

   EN    FR    IT 

 









Legend :    VFR   Marginal VFR   IFR   Intensive IFR   Very Intensive IFR
Visi :
Ceiling :
>= 8 km
>= 3000ft
5 to 8 km
1000 to 3000 ft
1500m to 5 km
500 to 1000 ft
800 to 1500m
200 to 500 ft
< 800m
< 200 ft
Symbols :   Thunderstorms  Fog  Heavy snow  Heavy precipitations  Wind > 20 kt






- Airport Elevation : 3967 ft
- IATA code : BFF


KBFF - Western Neb. Rgnl/William B. Heilig

CURRENT METAR :
  • 011753Z AUTO 00000KT 10SM FEW110 17/01 A2970 RMK AO2 SLP037 T01670011 10167 20006 58004

EXPIRED METARs :
  • 011653Z AUTO VRB03KT 10SM BKN100 16/02 A2972 RMK AO2 SLP044 T01560022
  • 011553Z AUTO 00000KT 10SM BKN110 12/03 A2971 RMK AO2 SLP044 T01170028

TAF KBFF
Valid from the 01 at 18:00 until the 02 at 18:00 UTC


011723Z 0118/0218 VRB05KT P6SM BKN100
FM012200 02010KT P6SM VCSH BKN070
FM020200 04018G25KT P6SM BKN035
FM020400 03018G25KT P6SM OVC007
FM020600 02017G24KT P6SM -FZDZ OVC007
FM021100 01017G24KT 3SM -FZDZ OVC010
FM021200 01016G23KT 3SM -SN OVC010



MET'MAP, your aeronautical weather chart ! - Copyright ORBIFLY December 2007 - Disclaimer

ORBIFLY MET'MAP TEAM :

Programming & Development : Alexandra Zaïnal
Concept & original design : Baudouin d'Aumeries
Assistance for programming : Marc-Olivier Méhu
Technical & hardware support : Manuel Goepfert

Contact : metmap@orbifly.com




SOURCES & CREDITS :

   NOAA       Earth
Advisory